Melrose, Pennsylvania
Current Conditions -  °F | °C
As of 9:54 AM on Friday 19 Dec 2014 (Local Time) from KPNE Reporting Station
Overcast Overcast  
Wind Chill: 31°   Ceiling: 3200
Heat Index: 39°   Visibility: 10mi
Dew Point: 24°   Wind: 13mph
Humidity: 55%   Direction: 300°WNW
Pressure: 30.1"   Gusts: NA
Location:  40.0732°N, 75.1248°W
Report Text: KPNE 191454Z AUTO 30011KT 10SM OVC032 04/M04 A3010 RMK AO2 SLP193 T00391044 53013 TSNO $
Loading
Personal Weather Stations






























Interactive Weather Map New forecast layout! Learn more

10-Day Weather Forecast

Advertisements
Track Severe Weather on mobile